Kodiak Airport
PADQ : now visible

Aeroporto :











RITROVATECI SU...

 
LOGIN :

Iscrizione | Disclaimer

   EN    FR    IT 

 









Sommario :    VFR   VFR Marginale   IFR   IFR Intensivo   IFR Molto Intensivo
Visibilità : 
Base nubi : 
>= 8 km
>= 3000ft
5 / 8 km
1000 / 3000 ft
1500m / 5 km
500 / 1000 ft
800 / 1500m
200 / 500 ft
< 800m
< 200 ft
Simboli :   Temporali  Nebbia  Neve Forte  Precipitazioni Forti  Vento > 20 kt






- Altitudine del aeroporto : 78 ft
- Codice IATA : ADQ


PADQ - Kodiak

ULTIMO METAR :
  • 011917Z 04011KT 10SM FEW012 SCT026 OVC033 10/08 A2948 RMK AO2 T01000078

METARs OBSOLETI :
  • 011853Z 05011KT 10SM SCT011 BKN020 OVC026 09/07 A2948 RMK AO2 SLP984 T00940072
  • 011800Z 05010KT 10SM SCT011 BKN020 OVC026 09/07 A2948 RMK AO2 T00940072
  • 011718Z 05009KT 10SM BKN007 BKN011 OVC034 09/07 A2948 RMK AO2 RAE15 P0001 T00890067
  • 011711Z 06014KT 5SM -RA BR FEW007 BKN011 OVC034 09/07 A2948 RMK AO2 P0001 T00890067
  • 011653Z 06015KT 2 1/2SM -RA BR BKN008 BKN020 OVC032 08/07 A2947 RMK AO2 SLP981 P0001 T00830067
  • 011636Z 07012KT 3SM -RA BR BKN008 OVC020 09/07 A2948 RMK AO2 P0000 T00890067

TAF PADQ
Valido dal 01 a 18 ore il 02 a 18 ore UTC


011740Z 0118/0218 06015KT 6SM -RA SCT010 OVC030
TEMPO 0118/0121 3SM -RA BKN007 OVC012
FM012100 06015G25KT 5SM -RA SCT007 OVC010
TEMPO 0121/0124 2SM -RA BKN007
FM020900 04015KT P6SM -RA OVC015
FIR PAZA / America del Nord



MetMap, La meteo Aeronautica in un colpo d'occhio ! - Copyright ORBIFLY Dicembre 2007 - Disclaimer

ORBIFLY MET'MAP TEAM :

Programmazione e sviluppo : Alexandra Zaïnal
Concezione : Baudouin d'Aumeries
Aiuto per la programmazione : Marc-Olivier Méhu
Supporto tecnico e logistico : Manuel Goepfert
Aiuto per la traduzione : Arnaldo La Scala

Contatto : metmap@orbifly.com




FONTI E CREDITI :

   NOAA       Earth
Advisory